Time;durP1;ratioP1;P1;durP2;ratioP2;P2;SDS_P1;SDS_P2;PMS_P1;PMS_P2;Temp;Humidity;BMP_temperature;BMP_pressure;BME280_temperature;BME280_humidity;BME280_pressure;Samples;Min_cycle;Max_cycle;Signal;HPM_P1;HPM_P2
2023/03/11 00:00:06;;;;;;;3.70;2.30;;;0.80;99.90;;;;;;4138552;28;20469;-72
2023/03/11 00:02:08;;;;;;;4.53;2.77;;;0.80;99.90;;;;;;4140419;28;20483;-76
2023/03/11 00:04:10;;;;;;;3.07;2.33;;;0.80;99.90;;;;;;4140115;28;20458;-73
2023/03/11 00:06:12;;;;;;;6.50;3.50;;;0.80;99.90;;;;;;4139772;28;20447;-73
2023/03/11 00:08:18;;;;;;;5.53;2.70;;;0.70;99.90;;;;;;4149538;28;20481;-73
2023/03/11 00:10:23;;;;;;;6.17;3.60;;;0.70;99.90;;;;;;4156132;28;20470;-73
2023/03/11 00:12:25;;;;;;;3.83;2.57;;;0.70;99.90;;;;;;4140420;28;20496;-74
2023/03/11 00:14:27;;;;;;;3.30;2.40;;;0.70;99.90;;;;;;4141972;28;20463;-72
2023/03/11 00:16:29;;;;;;;4.30;2.40;;;0.70;99.90;;;;;;4134951;28;20461;-72
2023/03/11 00:18:31;;;;;;;4.37;3.00;;;0.60;99.90;;;;;;4138337;28;20472;-72
2023/03/11 00:20:35;;;;;;;4.03;2.77;;;0.70;99.90;;;;;;4139103;28;20527;-73
2023/03/11 00:22:37;;;;;;;5.87;3.07;;;0.60;99.90;;;;;;4140933;28;20490;-74
2023/03/11 00:24:40;;;;;;;5.80;3.93;;;0.60;99.90;;;;;;4138354;28;20460;-75
2023/03/11 00:26:42;;;;;;;5.83;3.53;;;0.50;99.90;;;;;;4141316;28;20803;-72
2023/03/11 00:28:48;;;;;;;6.23;3.97;;;0.50;99.90;;;;;;4141201;28;20504;-72
2023/03/11 00:30:50;;;;;;;5.83;3.40;;;0.50;99.90;;;;;;4135268;28;20493;-74
2023/03/11 00:32:54;;;;;;;6.10;3.70;;;0.50;99.90;;;;;;4144077;28;20453;-74
2023/03/11 00:34:59;;;;;;;6.10;3.57;;;0.40;99.90;;;;;;4142244;28;20451;-73
2023/03/11 00:37:00;;;;;;;8.50;4.60;;;0.40;99.90;;;;;;4137030;28;20514;-76
2023/03/11 00:39:05;;;;;;;7.60;3.80;;;0.50;99.90;;;;;;4141114;28;20537;-72
2023/03/11 00:41:08;;;;;;;5.73;3.43;;;0.40;99.90;;;;;;4144205;28;20542;-75
2023/03/11 00:43:10;;;;;;;7.70;4.23;;;0.40;99.90;;;;;;4142069;28;20512;-74
2023/03/11 00:45:12;;;;;;;7.93;4.50;;;0.40;99.90;;;;;;4135312;28;20486;-73
2023/03/11 00:47:14;;;;;;;8.47;4.23;;;0.40;99.90;;;;;;4151532;28;20829;-73
2023/03/11 00:49:16;;;;;;;7.50;4.40;;;0.30;99.90;;;;;;4142765;28;20481;-73
2023/03/11 00:51:18;;;;;;;9.30;5.17;;;0.30;99.90;;;;;;4142489;28;20544;-73
2023/03/11 00:53:20;;;;;;;8.83;5.00;;;0.30;99.90;;;;;;4138184;28;20552;-73
2023/03/11 00:55:24;;;;;;;10.47;5.30;;;0.30;99.90;;;;;;4137846;28;20995;-73
2023/03/11 00:57:28;;;;;;;12.73;6.30;;;0.30;99.90;;;;;;4137898;28;20463;-73
2023/03/11 00:59:30;;;;;;;9.80;5.57;;;0.30;99.90;;;;;;4139321;28;20551;-74
2023/03/11 01:01:32;;;;;;;11.43;6.50;;;0.40;99.90;;;;;;4152878;28;20529;-75
2023/03/11 01:03:34;;;;;;;14.47;6.80;;;0.30;99.90;;;;;;4138163;28;20514;-75
2023/03/11 01:05:36;;;;;;;11.63;6.13;;;0.30;99.90;;;;;;4141296;28;21262;-75
2023/03/11 01:07:38;;;;;;;14.43;6.37;;;0.20;99.90;;;;;;4140287;28;20523;-74
2023/03/11 01:09:40;;;;;;;14.80;7.10;;;0.30;99.90;;;;;;4141015;28;21170;-75
2023/03/11 01:11:42;;;;;;;15.27;7.60;;;0.30;99.90;;;;;;4139056;28;20454;-76
2023/03/11 01:13:46;;;;;;;17.53;8.13;;;0.20;99.90;;;;;;4141628;28;20454;-75
2023/03/11 01:15:48;;;;;;;16.43;8.23;;;0.20;99.90;;;;;;4137543;28;20444;-77
2023/03/11 01:17:50;;;;;;;17.17;7.87;;;0.30;99.90;;;;;;4140208;28;20469;-77
2023/03/11 01:19:52;;;;;;;17.83;8.80;;;0.20;99.90;;;;;;4137767;28;20558;-75
2023/03/11 01:21:54;;;;;;;18.73;8.57;;;0.20;99.90;;;;;;4139815;28;20578;-77
2023/03/11 01:23:57;;;;;;;16.47;8.50;;;0.30;99.90;;;;;;4137920;28;20444;-77
2023/03/11 01:25:59;;;;;;;19.33;8.70;;;0.70;99.90;;;;;;4138091;28;20451;-76
2023/03/11 01:28:01;;;;;;;18.70;9.10;;;0.60;99.90;;;;;;4138945;28;20462;-76
2023/03/11 01:30:06;;;;;;;17.17;8.57;;;1.20;99.90;;;;;;4136064;28;20487;-76
2023/03/11 01:32:08;;;;;;;18.23;9.30;;;0.20;99.90;;;;;;4137184;28;20453;-76
2023/03/11 01:34:11;;;;;;;16.40;8.10;;;0.20;99.90;;;;;;4138698;28;20826;-75
2023/03/11 01:36:13;;;;;;;16.30;7.83;;;0.20;99.90;;;;;;4137683;28;20467;-74
2023/03/11 01:38:16;;;;;;;17.27;8.43;;;0.20;99.90;;;;;;4137032;28;20930;-75
2023/03/11 01:40:20;;;;;;;20.43;8.33;;;0.20;99.90;;;;;;4138640;28;20473;-75
2023/03/11 01:42:22;;;;;;;18.70;8.43;;;0.20;99.90;;;;;;4137616;28;20495;-75
2023/03/11 01:44:25;;;;;;;16.00;7.80;;;0.20;99.90;;;;;;4139379;28;20471;-76
2023/03/11 01:46:34;;;;;;;16.77;7.43;;;0.20;99.90;;;;;;4137914;28;20496;-74
2023/03/11 01:48:37;;;;;;;15.00;7.57;;;0.20;99.90;;;;;;4138634;28;21088;-76
2023/03/11 01:50:44;;;;;;;15.13;7.03;;;0.40;99.90;;;;;;4135390;28;20470;-76
2023/03/11 01:52:47;;;;;;;16.63;7.30;;;0.20;99.90;;;;;;4138103;28;20506;-76
2023/03/11 01:54:49;;;;;;;16.30;7.70;;;0.20;99.90;;;;;;4137248;28;20464;-77
2023/03/11 01:56:52;;;;;;;17.50;8.40;;;0.20;99.90;;;;;;4145109;28;20499;-73
2023/03/11 01:58:55;;;;;;;16.40;7.97;;;0.20;99.90;;;;;;4144055;28;20564;-74
2023/03/11 02:00:58;;;;;;;18.93;8.33;;;0.20;99.90;;;;;;4147083;28;20997;-74
2023/03/11 02:03:06;;;;;;;18.37;8.63;;;0.20;99.90;;;;;;4141554;28;20526;-73
2023/03/11 02:05:12;;;;;;;20.30;9.00;;;0.20;99.90;;;;;;4144860;28;20840;-74
2023/03/11 02:07:14;;;;;;;21.87;10.53;;;0.20;99.90;;;;;;4145078;28;20470;-77
2023/03/11 02:09:16;;;;;;;21.33;9.67;;;0.20;99.90;;;;;;4140742;28;20488;-75
2023/03/11 02:11:22;;;;;;;20.70;10.47;;;0.20;99.90;;;;;;4146423;28;20544;-74
2023/03/11 02:13:26;;;;;;;22.13;10.33;;;0.20;99.90;;;;;;4145236;28;20448;-74
2023/03/11 02:15:28;;;;;;;25.97;10.33;;;0.20;99.90;;;;;;4145999;28;20560;-73
2023/03/11 02:17:31;;;;;;;26.63;11.97;;;0.40;99.90;;;;;;4143209;28;20478;-74
2023/03/11 02:19:46;;;;;;;26.63;11.37;;;0.20;99.90;;;;;;4141334;28;20478;-74
2023/03/11 02:21:49;;;;;;;23.83;10.87;;;0.20;99.90;;;;;;4138915;28;20486;-76
2023/03/11 02:23:57;;;;;;;23.77;11.33;;;0.20;99.90;;;;;;4135535;28;20463;-75
2023/03/11 02:26:07;;;;;;;25.70;11.13;;;0.20;99.90;;;;;;4137370;28;20469;-78
2023/03/11 02:28:13;;;;;;;27.60;11.17;;;0.20;99.90;;;;;;4137218;28;20554;-75
2023/03/11 02:30:16;;;;;;;25.77;11.47;;;0.20;99.90;;;;;;4134829;28;21126;-74
2023/03/11 02:32:19;;;;;;;21.67;10.53;;;0.20;99.90;;;;;;4131902;28;21033;-77
2023/03/11 02:34:26;;;;;;;24.70;10.13;;;0.20;99.90;;;;;;4140151;28;20472;-76
2023/03/11 02:36:34;;;;;;;26.97;10.90;;;0.20;99.90;;;;;;4138140;28;20472;-76
2023/03/11 02:38:35;;;;;;;21.73;10.37;;;0.20;99.90;;;;;;4136564;28;20491;-77
2023/03/11 02:40:43;;;;;;;23.40;10.00;;;0.20;99.90;;;;;;4134681;28;20578;-76
2023/03/11 02:42:45;;;;;;;25.23;10.50;;;0.20;99.90;;;;;;4136459;28;20492;-76
2023/03/11 02:44:56;;;;;;;25.63;10.77;;;0.20;99.90;;;;;;4135725;28;20564;-75
2023/03/11 02:46:59;;;;;;;23.43;10.33;;;0.20;99.90;;;;;;4135963;28;20575;-76
2023/03/11 02:49:02;;;;;;;26.60;10.47;;;0.20;99.90;;;;;;4134429;28;20495;-77
2023/03/11 02:51:04;;;;;;;26.03;10.73;;;0.20;99.90;;;;;;4141150;28;20558;-76
2023/03/11 02:53:07;;;;;;;21.80;9.20;;;0.20;99.90;;;;;;4138064;28;20465;-73
2023/03/11 02:55:11;;;;;;;23.47;10.10;;;0.20;99.90;;;;;;4141619;28;20472;-75
2023/03/11 02:57:13;;;;;;;23.07;10.03;;;0.20;99.90;;;;;;4141055;28;20472;-74
2023/03/11 02:59:15;;;;;;;20.57;9.57;;;0.20;99.90;;;;;;4143794;28;20494;-75
2023/03/11 03:01:18;;;;;;;22.40;9.77;;;0.20;99.90;;;;;;4138518;28;20460;-75
2023/03/11 03:03:20;;;;;;;24.00;10.23;;;0.20;99.90;;;;;;4137767;28;20549;-76
2023/03/11 03:05:23;;;;;;;28.47;10.67;;;0.20;99.90;;;;;;4136439;28;20559;-77
2023/03/11 03:07:25;;;;;;;26.10;11.13;;;0.20;99.90;;;;;;4137046;28;20554;-75
2023/03/11 03:09:27;;;;;;;26.30;10.70;;;0.20;99.90;;;;;;4137219;28;20491;-75
2023/03/11 03:11:29;;;;;;;27.17;11.23;;;0.20;99.90;;;;;;4138513;28;20497;-76
2023/03/11 03:13:31;;;;;;;28.40;11.33;;;0.20;99.90;;;;;;4134705;28;20448;-76
2023/03/11 03:15:33;;;;;;;28.57;11.87;;;0.20;99.90;;;;;;4137479;28;20474;-77
2023/03/11 03:17:36;;;;;;;28.00;11.00;;;0.20;99.90;;;;;;4136575;28;20976;-76
2023/03/11 03:19:38;;;;;;;29.17;11.83;;;0.20;99.90;;;;;;4133054;28;20863;-76
2023/03/11 03:21:41;;;;;;;29.40;11.87;;;0.20;99.90;;;;;;4138337;28;20460;-74
2023/03/11 03:23:42;;;;;;;29.67;12.27;;;0.20;99.90;;;;;;4136999;28;20490;-75
2023/03/11 03:25:45;;;;;;;27.70;11.57;;;0.20;99.90;;;;;;4134958;28;20474;-76
2023/03/11 03:27:47;;;;;;;28.30;11.20;;;0.20;99.90;;;;;;4136100;28;20575;-76
2023/03/11 03:29:49;;;;;;;26.60;11.07;;;0.20;99.90;;;;;;4138346;28;20575;-75
2023/03/11 03:31:51;;;;;;;27.20;10.90;;;0.20;99.90;;;;;;4135434;28;20536;-74
2023/03/11 03:33:54;;;;;;;28.63;11.80;;;0.40;99.90;;;;;;4138999;28;20480;-76
2023/03/11 03:35:56;;;;;;;27.07;11.30;;;0.20;99.90;;;;;;4138855;28;20507;-76
2023/03/11 03:37:58;;;;;;;27.33;10.90;;;0.20;99.90;;;;;;4135673;28;20449;-77
2023/03/11 03:40:00;;;;;;;28.10;11.07;;;0.20;99.90;;;;;;4136385;28;20455;-77
2023/03/11 03:42:02;;;;;;;25.50;11.90;;;-0.30;99.90;;;;;;4134598;28;20449;-76
2023/03/11 03:44:04;;;;;;;23.27;10.23;;;0.30;99.90;;;;;;4136614;28;20878;-76
2023/03/11 03:46:06;;;;;;;31.23;12.17;;;0.20;99.90;;;;;;4136947;28;20902;-76
2023/03/11 03:48:08;;;;;;;25.43;10.93;;;0.20;99.90;;;;;;4133267;28;20867;-77
2023/03/11 03:50:12;;;;;;;29.13;12.27;;;0.20;99.90;;;;;;4137300;28;20459;-76
2023/03/11 03:52:15;;;;;;;31.17;11.77;;;0.20;99.90;;;;;;4136626;28;20491;-76
2023/03/11 03:54:16;;;;;;;30.47;12.37;;;0.20;99.90;;;;;;4135573;28;20540;-77
2023/03/11 03:56:22;;;;;;;30.70;12.80;;;0.20;99.90;;;;;;4135686;28;20609;-77
2023/03/11 03:58:24;;;;;;;30.37;12.00;;;0.20;99.90;;;;;;4134763;28;20468;-76
2023/03/11 04:00:26;;;;;;;35.53;13.63;;;0.20;99.90;;;;;;4137269;28;20542;-75
2023/03/11 04:02:28;;;;;;;34.70;13.30;;;0.20;99.90;;;;;;4137503;28;20607;-76
2023/03/11 04:04:30;;;;;;;34.23;13.07;;;0.20;99.90;;;;;;4135481;28;20522;-77
2023/03/11 04:06:34;;;;;;;32.23;12.93;;;0.20;99.90;;;;;;4135449;28;20455;-77
2023/03/11 04:08:36;;;;;;;35.17;13.13;;;0.20;99.90;;;;;;4136833;28;20571;-75
2023/03/11 04:10:38;;;;;;;31.10;11.87;;;0.20;99.90;;;;;;4138083;28;20518;-77
2023/03/11 04:12:39;;;;;;;31.23;13.00;;;0.10;99.90;;;;;;4136139;28;20464;-77
2023/03/11 04:14:42;;;;;;;29.73;12.10;;;0.10;99.90;;;;;;4136388;28;20455;-76
2023/03/11 04:16:43;;;;;;;30.53;12.33;;;0.10;99.90;;;;;;4134475;28;20460;-77
2023/03/11 04:18:46;;;;;;;29.90;11.90;;;0.10;99.90;;;;;;4135489;28;20515;-76
2023/03/11 04:20:48;;;;;;;31.90;12.17;;;0.20;99.90;;;;;;4134439;28;20479;-76
2023/03/11 04:22:51;;;;;;;31.83;12.70;;;0.20;99.90;;;;;;4136242;28;20484;-72
2023/03/11 04:24:53;;;;;;;27.70;11.80;;;0.10;99.90;;;;;;4145063;28;20487;-74
2023/03/11 04:26:55;;;;;;;32.93;12.47;;;0.10;99.90;;;;;;4138544;28;20491;-76
2023/03/11 04:28:57;;;;;;;32.13;11.80;;;0.10;99.90;;;;;;4135855;28;20894;-75
2023/03/11 04:30:59;;;;;;;30.03;11.97;;;0.20;99.90;;;;;;4137575;28;20578;-74
2023/03/11 04:33:01;;;;;;;31.90;11.90;;;0.10;99.90;;;;;;4141222;28;20492;-75
2023/03/11 04:35:03;;;;;;;27.20;11.57;;;0.20;99.90;;;;;;4136517;28;20459;-76
2023/03/11 04:37:06;;;;;;;27.10;10.87;;;0.20;99.90;;;;;;4135950;28;20460;-75
2023/03/11 04:39:10;;;;;;;28.47;11.37;;;0.10;99.90;;;;;;4136215;28;20488;-74
2023/03/11 04:41:12;;;;;;;29.97;11.00;;;0.10;99.90;;;;;;4140388;28;20466;-76
2023/03/11 04:43:14;;;;;;;26.43;10.90;;;0.10;99.90;;;;;;4137995;28;20550;-75
2023/03/11 04:45:17;;;;;;;27.23;10.67;;;0.10;99.90;;;;;;4137104;28;20553;-74
2023/03/11 04:47:20;;;;;;;23.13;9.20;;;0.10;99.90;;;;;;4137997;28;20473;-76
2023/03/11 04:49:22;;;;;;;26.70;10.47;;;0.20;99.90;;;;;;4140045;28;20904;-75
2023/03/11 04:51:26;;;;;;;24.80;10.17;;;0.10;99.90;;;;;;4141065;28;20531;-75
2023/03/11 04:53:28;;;;;;;24.50;9.73;;;0.10;99.90;;;;;;4134455;28;20453;-75
2023/03/11 04:55:32;;;;;;;27.57;11.07;;;0.10;99.90;;;;;;4137109;28;20483;-75
2023/03/11 04:57:36;;;;;;;29.67;10.63;;;0.10;99.90;;;;;;4135850;28;20533;-74
2023/03/11 04:59:38;;;;;;;28.03;10.67;;;0.10;99.90;;;;;;4141416;28;20595;-73
2023/03/11 05:01:40;;;;;;;29.67;10.83;;;0.10;99.90;;;;;;4139632;28;20456;-75
2023/03/11 05:03:42;;;;;;;29.30;10.77;;;0.10;99.90;;;;;;4143192;28;20911;-76
2023/03/11 05:05:45;;;;;;;26.70;11.23;;;0.10;99.90;;;;;;4142882;28;20866;-73
2023/03/11 05:07:47;;;;;;;28.30;11.73;;;0.10;99.90;;;;;;4137677;28;20451;-75
2023/03/11 05:09:49;;;;;;;31.13;12.87;;;0.10;99.90;;;;;;4140924;28;20499;-75
2023/03/11 05:11:52;;;;;;;31.53;12.37;;;0.10;99.90;;;;;;4139398;28;20538;-75
2023/03/11 05:13:54;;;;;;;35.77;12.10;;;0.10;99.90;;;;;;4141480;28;20848;-75
2023/03/11 05:15:56;;;;;;;32.27;12.57;;;0.10;99.90;;;;;;4136512;28;20496;-77
2023/03/11 05:17:58;;;;;;;32.97;13.37;;;0.10;99.90;;;;;;4137080;28;20871;-76
2023/03/11 05:20:00;;;;;;;33.43;12.77;;;0.10;99.90;;;;;;4144542;28;20655;-76
2023/03/11 05:22:02;;;;;;;29.17;12.07;;;0.10;99.90;;;;;;4136550;28;20543;-75
2023/03/11 05:24:04;;;;;;;31.93;12.93;;;0.10;99.90;;;;;;4139432;28;20490;-75
2023/03/11 05:26:06;;;;;;;32.50;13.00;;;0.10;99.90;;;;;;4137458;28;20459;-77
2023/03/11 05:28:12;;;;;;;36.13;12.60;;;0.10;99.90;;;;;;4139167;28;20456;-76
2023/03/11 05:30:14;;;;;;;31.00;12.27;;;0.10;99.90;;;;;;4137790;28;21017;-76
2023/03/11 05:32:18;;;;;;;30.70;12.20;;;0.10;99.90;;;;;;4137044;28;20459;-73
2023/03/11 05:34:20;;;;;;;30.03;11.90;;;0.10;99.90;;;;;;4139573;28;20469;-76
2023/03/11 05:36:22;;;;;;;34.03;12.70;;;0.10;99.90;;;;;;4136089;28;20455;-76
2023/03/11 05:38:23;;;;;;;34.67;13.30;;;0.10;99.90;;;;;;4136668;28;20516;-76
2023/03/11 05:40:25;;;;;;;39.80;13.10;;;0.10;99.90;;;;;;4142506;28;20542;-76
2023/03/11 05:42:27;;;;;;;38.50;13.93;;;0.10;99.90;;;;;;4136135;28;20558;-74
2023/03/11 05:44:31;;;;;;;41.83;14.37;;;0.10;99.90;;;;;;4139171;28;20484;-75
2023/03/11 05:46:33;;;;;;;37.97;14.40;;;0.20;99.90;;;;;;4141439;28;20451;-73
2023/03/11 05:48:36;;;;;;;36.83;13.10;;;0.10;99.90;;;;;;4137307;28;20573;-72
2023/03/11 05:50:38;;;;;;;38.43;14.43;;;0.10;99.90;;;;;;4145310;28;20461;-73
2023/03/11 05:52:40;;;;;;;38.60;14.13;;;0.20;99.90;;;;;;4141437;28;20505;-73
2023/03/11 05:54:42;;;;;;;35.80;12.93;;;0.10;99.90;;;;;;4143586;28;20474;-73
2023/03/11 05:56:45;;;;;;;34.37;13.10;;;0.10;99.90;;;;;;4141142;28;20954;-72
2023/03/11 05:58:48;;;;;;;32.57;12.67;;;0.10;99.90;;;;;;4143716;28;20518;-73
2023/03/11 06:00:51;;;;;;;34.13;12.50;;;0.10;99.90;;;;;;4144143;28;20481;-73
2023/03/11 06:02:53;;;;;;;36.00;12.67;;;0.10;99.90;;;;;;4142652;28;20468;-72
2023/03/11 06:04:55;;;;;;;34.47;12.37;;;0.10;99.90;;;;;;4141716;28;20494;-72
2023/03/11 06:06:57;;;;;;;30.93;12.03;;;0.20;99.90;;;;;;4138855;28;20507;-73
2023/03/11 06:08:59;;;;;;;30.27;12.23;;;0.10;99.90;;;;;;4142058;28;20506;-72
2023/03/11 06:11:05;;;;;;;28.60;11.03;;;0.10;99.90;;;;;;4138151;28;21182;-74
2023/03/11 06:13:07;;;;;;;30.93;10.77;;;0.20;99.90;;;;;;4142232;28;21107;-72
2023/03/11 06:15:10;;;;;;;23.83;10.20;;;0.10;99.90;;;;;;4145665;28;20548;-73
2023/03/11 06:17:13;;;;;;;23.67;9.20;;;0.10;99.90;;;;;;4142396;28;20463;-73
2023/03/11 06:19:15;;;;;;;25.60;9.97;;;0.10;99.90;;;;;;4144339;28;20509;-73
2023/03/11 06:21:19;;;;;;;25.40;10.07;;;0.10;99.90;;;;;;4143643;28;20559;-73
2023/03/11 06:23:21;;;;;;;28.40;11.10;;;0.10;99.90;;;;;;4145701;28;20505;-73
2023/03/11 06:25:24;;;;;;;26.73;10.53;;;0.10;99.90;;;;;;4145901;28;20547;-72
2023/03/11 06:27:25;;;;;;;28.53;10.27;;;0.10;99.90;;;;;;4143486;28;20542;-73
2023/03/11 06:29:28;;;;;;;25.60;9.90;;;0.10;99.90;;;;;;4139096;28;20495;-73
2023/03/11 06:31:31;;;;;;;25.07;10.20;;;0.10;99.90;;;;;;4146996;28;20451;-73
2023/03/11 06:33:34;;;;;;;25.83;10.10;;;0.10;99.90;;;;;;4147283;28;20440;-73
2023/03/11 06:35:36;;;;;;;29.67;10.37;;;0.10;99.90;;;;;;4149768;28;20543;-73
2023/03/11 06:37:38;;;;;;;26.27;10.10;;;0.10;99.90;;;;;;4144931;28;20490;-73
2023/03/11 06:39:40;;;;;;;28.60;10.40;;;0.10;99.90;;;;;;4141568;28;20481;-74
2023/03/11 06:41:42;;;;;;;24.63;9.40;;;0.10;99.90;;;;;;4135750;28;20543;-75
2023/03/11 06:43:44;;;;;;;27.93;10.47;;;0.10;99.90;;;;;;4137715;28;20486;-75
2023/03/11 06:45:46;;;;;;;24.80;10.33;;;0.10;99.90;;;;;;4134785;28;20456;-75
2023/03/11 06:47:48;;;;;;;23.73;10.50;;;0.10;99.90;;;;;;4134193;28;21050;-74
2023/03/11 06:49:51;;;;;;;26.67;10.53;;;0.10;99.90;;;;;;4135929;28;20515;-76
2023/03/11 06:51:53;;;;;;;22.47;9.83;;;0.10;99.90;;;;;;4142845;28;20546;-74
2023/03/11 06:53:55;;;;;;;27.97;9.70;;;0.10;99.90;;;;;;4136624;28;20458;-76
2023/03/11 06:55:59;;;;;;;26.43;9.60;;;0.10;99.90;;;;;;4136558;28;21192;-75
2023/03/11 06:58:01;;;;;;;25.03;8.87;;;0.10;99.90;;;;;;4136390;28;20454;-75
2023/03/11 07:00:06;;;;;;;21.60;9.87;;;0.10;99.90;;;;;;4137225;28;20494;-75
2023/03/11 07:02:10;;;;;;;27.13;9.30;;;0.10;99.90;;;;;;4136936;28;20444;-74
2023/03/11 07:04:12;;;;;;;20.57;8.70;;;1.40;99.90;;;;;;4136747;28;20572;-75
2023/03/11 07:06:17;;;;;;;21.67;9.00;;;0.10;99.90;;;;;;4135958;28;20981;-73
2023/03/11 07:08:19;;;;;;;18.03;7.80;;;0.10;99.90;;;;;;4135366;28;20492;-75
2023/03/11 07:10:21;;;;;;;22.00;8.23;;;0.10;99.90;;;;;;4138829;28;20459;-75
2023/03/11 07:12:24;;;;;;;22.37;8.77;;;0.10;99.90;;;;;;4138237;28;20487;-76
2023/03/11 07:14:26;;;;;;;21.10;8.43;;;0.10;99.90;;;;;;4137768;28;20460;-75
2023/03/11 07:16:30;;;;;;;20.90;8.43;;;0.10;99.90;;;;;;4138236;28;20481;-76
2023/03/11 07:18:33;;;;;;;24.13;9.17;;;0.10;99.90;;;;;;4136276;28;20479;-76
2023/03/11 07:20:37;;;;;;;22.47;9.27;;;0.10;99.90;;;;;;4136192;28;20439;-75
2023/03/11 07:22:40;;;;;;;23.13;8.67;;;0.10;99.90;;;;;;4136202;28;20444;-75
2023/03/11 07:24:45;;;;;;;17.27;7.80;;;0.10;99.90;;;;;;4138753;28;20515;-73
2023/03/11 07:26:47;;;;;;;17.70;7.67;;;0.10;99.90;;;;;;4134767;28;20526;-75
2023/03/11 07:28:49;;;;;;;23.20;8.67;;;0.20;99.90;;;;;;4135489;28;20479;-75
2023/03/11 07:30:54;;;;;;;20.43;9.00;;;0.10;99.90;;;;;;4137252;28;20488;-72
2023/03/11 07:32:57;;;;;;;22.70;9.07;;;0.20;99.90;;;;;;4156607;28;20447;-73
2023/03/11 07:34:59;;;;;;;20.23;8.67;;;0.10;99.90;;;;;;4143743;28;20456;-73
2023/03/11 07:37:01;;;;;;;16.30;7.93;;;0.20;99.90;;;;;;4143759;28;21234;-74
2023/03/11 07:39:05;;;;;;;20.63;8.60;;;0.20;99.90;;;;;;4139923;28;20917;-72
2023/03/11 07:41:09;;;;;;;23.33;9.63;;;0.20;99.90;;;;;;4143550;28;20818;-73
2023/03/11 07:43:11;;;;;;;26.93;9.80;;;0.20;99.90;;;;;;4137161;28;20467;-73
2023/03/11 07:45:13;;;;;;;22.20;8.90;;;0.20;99.90;;;;;;4138939;28;20486;-74
2023/03/11 07:47:15;;;;;;;19.80;8.13;;;0.20;99.90;;;;;;4137960;28;20908;-73
2023/03/11 07:49:17;;;;;;;24.23;9.63;;;0.20;99.90;;;;;;4141455;28;20877;-74
2023/03/11 07:51:21;;;;;;;22.17;9.03;;;0.30;99.90;;;;;;4147653;28;20518;-75
2023/03/11 07:53:23;;;;;;;23.53;9.73;;;0.20;99.90;;;;;;4143652;28;20454;-72
2023/03/11 07:55:26;;;;;;;20.77;9.37;;;0.20;99.90;;;;;;4142293;28;20461;-73
2023/03/11 07:57:28;;;;;;;22.27;8.67;;;0.20;99.90;;;;;;4146610;28;20571;-74
2023/03/11 07:59:30;;;;;;;23.10;9.20;;;0.30;99.90;;;;;;4143332;28;20557;-72
2023/03/11 08:01:35;;;;;;;22.43;8.90;;;0.30;99.90;;;;;;4138865;28;20476;-72
2023/03/11 08:03:37;;;;;;;21.03;9.30;;;0.30;99.90;;;;;;4139838;28;20472;-73
2023/03/11 08:05:39;;;;;;;23.97;9.20;;;0.30;99.90;;;;;;4137325;28;20483;-73
2023/03/11 08:07:41;;;;;;;22.40;9.90;;;0.30;99.90;;;;;;4142320;28;20484;-75
2023/03/11 08:09:42;;;;;;;22.83;8.70;;;0.30;99.90;;;;;;4132183;28;21019;-75
2023/03/11 08:11:46;;;;;;;23.17;10.27;;;0.30;99.90;;;;;;4143666;28;20441;-73
2023/03/11 08:13:48;;;;;;;22.27;9.53;;;0.30;99.90;;;;;;4142666;28;21001;-72
2023/03/11 08:15:50;;;;;;;24.83;10.43;;;0.40;99.90;;;;;;4140474;28;20466;-74
2023/03/11 08:17:53;;;;;;;24.30;10.43;;;0.40;99.90;;;;;;4139144;28;20504;-73
2023/03/11 08:19:57;;;;;;;25.80;10.17;;;0.40;99.90;;;;;;4154845;28;20502;-71
2023/03/11 08:22:01;;;;;;;23.27;9.30;;;0.40;99.90;;;;;;4140395;28;20447;-71
2023/03/11 08:24:03;;;;;;;22.93;9.80;;;0.40;99.90;;;;;;4140189;28;20905;-72
2023/03/11 08:26:06;;;;;;;18.93;9.40;;;0.40;99.90;;;;;;4138639;28;20468;-72
2023/03/11 08:28:10;;;;;;;20.70;9.63;;;0.40;99.90;;;;;;4139633;28;20510;-71
2023/03/11 08:30:12;;;;;;;24.07;9.73;;;0.40;99.90;;;;;;4135938;28;20862;-71
2023/03/11 08:32:14;;;;;;;18.00;8.67;;;0.40;99.90;;;;;;4139768;28;20510;-72
2023/03/11 08:34:17;;;;;;;17.10;7.60;;;0.40;99.90;;;;;;4137222;28;20504;-72
2023/03/11 08:36:19;;;;;;;16.47;7.67;;;0.50;99.90;;;;;;4141255;28;20461;-78
2023/03/11 08:38:21;;;;;;;16.53;7.40;;;0.40;99.90;;;;;;4148296;28;20466;-78
2023/03/11 08:40:24;;;;;;;15.20;7.30;;;0.50;99.90;;;;;;4160091;28;20451;-74
2023/03/11 08:42:26;;;;;;;20.50;7.47;;;0.40;99.90;;;;;;4141909;28;20464;-73
2023/03/11 08:44:29;;;;;;;14.20;7.00;;;0.40;99.90;;;;;;4133632;28;20567;-74
2023/03/11 08:46:33;;;;;;;15.03;7.03;;;0.40;99.90;;;;;;4139453;28;20449;-74
2023/03/11 08:48:37;;;;;;;14.53;6.53;;;0.40;99.90;;;;;;4138789;28;20476;-75
2023/03/11 08:50:43;;;;;;;16.60;6.23;;;0.40;99.90;;;;;;4147063;28;20486;-73
2023/03/11 08:52:45;;;;;;;15.87;6.60;;;0.40;99.90;;;;;;4133990;28;20474;-73
2023/03/11 08:54:47;;;;;;;14.63;6.13;;;0.40;99.90;;;;;;4140332;28;21154;-74
2023/03/11 08:56:49;;;;;;;13.23;5.60;;;0.40;99.90;;;;;;4135540;28;20528;-73
2023/03/11 08:58:51;;;;;;;11.37;6.17;;;0.40;99.90;;;;;;4137603;28;20506;-73
2023/03/11 09:00:54;;;;;;;15.00;6.07;;;0.40;99.90;;;;;;4141625;28;20448;-74
2023/03/11 09:02:56;;;;;;;19.73;6.57;;;0.50;99.90;;;;;;4143733;28;20465;-73
2023/03/11 09:05:01;;;;;;;13.80;6.63;;;0.50;99.90;;;;;;4142644;28;20482;-74
2023/03/11 09:07:06;;;;;;;17.37;6.77;;;0.50;99.90;;;;;;4143262;28;20492;-75
2023/03/11 09:09:09;;;;;;;13.73;6.37;;;0.50;99.90;;;;;;4141717;28;20472;-74
2023/03/11 09:11:12;;;;;;;19.13;7.43;;;0.50;99.90;;;;;;4135124;28;20991;-75
2023/03/11 09:13:14;;;;;;;13.43;7.20;;;0.50;99.90;;;;;;4134358;28;20461;-75
2023/03/11 09:15:18;;;;;;;13.43;6.43;;;0.60;99.90;;;;;;4139314;28;20455;-77
2023/03/11 09:17:22;;;;;;;13.83;7.03;;;0.60;99.90;;;;;;4142429;28;20479;-74
2023/03/11 09:19:26;;;;;;;15.97;7.63;;;0.60;99.90;;;;;;4143051;28;21209;-73
2023/03/11 09:21:29;;;;;;;15.53;6.70;;;0.60;99.90;;;;;;4139099;28;20536;-74
2023/03/11 09:23:31;;;;;;;14.37;6.93;;;0.70;99.90;;;;;;4140537;28;21082;-74
2023/03/11 09:25:33;;;;;;;15.30;7.20;;;0.70;99.90;;;;;;4142676;28;20521;-74
2023/03/11 09:27:35;;;;;;;14.00;6.67;;;0.70;99.90;;;;;;4142595;28;21140;-74
2023/03/11 09:29:37;;;;;;;14.07;6.73;;;0.80;99.90;;;;;;4137398;28;21050;-74
2023/03/11 09:31:39;;;;;;;13.20;7.00;;;0.70;99.90;;;;;;4138619;28;20539;-74
2023/03/11 09:33:42;;;;;;;14.83;6.80;;;0.80;99.90;;;;;;4143976;28;20839;-76
2023/03/11 09:35:44;;;;;;;18.53;7.27;;;0.80;99.90;;;;;;4141105;28;20466;-74
2023/03/11 09:37:46;;;;;;;11.30;5.97;;;0.80;99.90;;;;;;4141795;28;20454;-74
2023/03/11 09:39:48;;;;;;;12.57;6.77;;;0.80;99.90;;;;;;4143212;28;20510;-73
2023/03/11 09:41:54;;;;;;;13.63;6.70;;;0.80;99.90;;;;;;4142433;28;20497;-73
2023/03/11 09:44:09;;;;;;;14.03;6.33;;;0.90;99.90;;;;;;4140608;28;20926;-73
2023/03/11 09:46:35;;;;;;;11.23;5.90;;;0.90;99.90;;;;;;4144443;28;20573;-74
2023/03/11 09:48:42;;;;;;;18.07;6.93;;;1.00;99.90;;;;;;4139720;28;20470;-74
2023/03/11 09:50:51;;;;;;;13.67;6.43;;;0.90;99.90;;;;;;4143273;28;20505;-74
2023/03/11 09:53:02;;;;;;;15.70;6.73;;;1.00;99.90;;;;;;4137471;28;20465;-76
2023/03/11 09:55:12;;;;;;;14.23;6.37;;;1.30;99.90;;;;;;4153899;28;20832;-76
2023/03/11 09:57:19;;;;;;;18.83;6.70;;;1.10;99.90;;;;;;4153134;28;20456;-77
2023/03/11 09:59:30;;;;;;;15.73;7.00;;;1.10;99.90;;;;;;4138903;28;20493;-76
2023/03/11 10:01:34;;;;;;;12.83;7.20;;;1.20;99.90;;;;;;4139587;28;21161;-75
2023/03/11 10:03:37;;;;;;;13.33;6.93;;;1.20;99.90;;;;;;4133356;28;20991;-74
2023/03/11 10:05:42;;;;;;;12.60;6.90;;;1.30;99.90;;;;;;4139277;28;20486;-74
2023/03/11 10:07:52;;;;;;;13.40;6.73;;;1.30;99.90;;;;;;4138421;28;20493;-74
2023/03/11 10:09:55;;;;;;;13.80;6.47;;;1.30;99.90;;;;;;4144154;28;21011;-77
2023/03/11 10:12:10;;;;;;;11.40;6.00;;;1.30;99.90;;;;;;4139542;28;20553;-74
2023/03/11 10:14:39;;;;;;;13.27;6.90;;;1.30;99.90;;;;;;4142073;28;20959;-77
2023/03/11 10:16:48;;;;;;;14.93;6.60;;;1.30;99.90;;;;;;4152874;28;20450;-75
2023/03/11 10:18:58;;;;;;;12.40;6.37;;;1.30;99.90;;;;;;4137281;28;20524;-74
2023/03/11 10:21:04;;;;;;;12.03;6.20;;;1.30;99.90;;;;;;4140991;28;20453;-74
2023/03/11 10:23:21;;;;;;;10.40;6.00;;;1.40;99.90;;;;;;4144300;28;20528;-74
2023/03/11 10:25:28;;;;;;;14.93;6.73;;;1.30;99.90;;;;;;4135857;28;20489;-74
2023/03/11 10:27:36;;;;;;;15.47;6.57;;;1.40;99.90;;;;;;4142215;28;20470;-75
2023/03/11 10:29:46;;;;;;;11.67;5.53;;;1.40;99.90;;;;;;4143952;28;20476;-74
2023/03/11 10:31:53;;;;;;;12.63;6.20;;;1.50;99.90;;;;;;4141234;28;20457;-74
2023/03/11 10:33:59;;;;;;;12.37;5.80;;;1.50;99.90;;;;;;4152271;28;20478;-75
2023/03/11 10:36:07;;;;;;;9.33;5.43;;;1.50;99.90;;;;;;4139651;28;20485;-73
2023/03/11 10:38:16;;;;;;;14.23;5.63;;;1.50;99.90;;;;;;4138932;28;20827;-78